createdAt,value
2022-10-25T00:04:17.697Z,13.10
2022-10-25T00:09:24.210Z,13.00
2022-10-25T00:14:40.092Z,12.90
2022-10-25T00:19:51.618Z,12.80
2022-10-25T00:25:22.232Z,12.60
2022-10-25T00:30:40.460Z,12.40
2022-10-25T00:35:54.438Z,12.30
2022-10-25T00:41:04.339Z,12.20
2022-10-25T00:46:28.055Z,12.10
2022-10-25T00:51:47.200Z,12.00
2022-10-25T00:57:00.352Z,11.80
2022-10-25T01:02:10.261Z,11.70
2022-10-25T01:07:19.579Z,11.60
2022-10-25T01:12:37.220Z,11.40
2022-10-25T01:17:44.660Z,11.40
2022-10-25T01:23:17.647Z,11.40
2022-10-25T01:29:01.110Z,11.30
2022-10-25T01:34:27.709Z,11.20
2022-10-25T01:39:40.684Z,11.10
2022-10-25T01:44:57.529Z,11.00
2022-10-25T01:50:05.898Z,11.00
2022-10-25T01:55:49.616Z,11.00
2022-10-25T02:00:59.066Z,11.10
2022-10-25T02:06:31.833Z,11.20
2022-10-25T02:11:39.912Z,11.20
2022-10-25T02:17:01.866Z,11.30
2022-10-25T02:22:12.505Z,11.40
2022-10-25T02:27:24.009Z,11.40
2022-10-25T02:32:33.436Z,11.50
2022-10-25T02:37:40.269Z,11.60
2022-10-25T02:42:46.969Z,11.60
2022-10-25T02:47:53.816Z,11.60
2022-10-25T02:53:07.556Z,11.60
2022-10-25T02:58:19.105Z,11.70
2022-10-25T03:03:40.944Z,11.70
2022-10-25T03:08:47.623Z,11.70
2022-10-25T03:13:54.388Z,11.70
2022-10-25T03:19:03.758Z,11.60
2022-10-25T03:24:17.498Z,11.70
2022-10-25T03:29:30.132Z,11.70
2022-10-25T03:34:39.567Z,11.70
2022-10-25T03:39:48.618Z,11.70
2022-10-25T03:45:01.606Z,11.80
2022-10-25T03:50:22.556Z,11.80
2022-10-25T03:55:30.624Z,11.80
2022-10-25T04:00:40.108Z,11.90
2022-10-25T04:05:51.010Z,11.80
2022-10-25T04:11:02.475Z,11.80
2022-10-25T04:21:46.586Z,11.80
2022-10-25T04:26:51.805Z,11.80
2022-10-25T04:32:03.113Z,11.70
2022-10-25T04:42:45.631Z,11.50
2022-10-25T04:47:52.935Z,11.30
2022-10-25T04:53:01.344Z,11.30
2022-10-25T04:58:06.676Z,11.20
2022-10-25T05:03:14.815Z,11.10
2022-10-25T05:08:21.671Z,11.00
2022-10-25T05:13:27.052Z,11.00
2022-10-25T05:18:33.763Z,11.00
2022-10-25T05:23:39.140Z,11.20
2022-10-25T05:28:46.955Z,11.20
2022-10-25T05:33:57.793Z,11.20
2022-10-25T05:39:05.160Z,11.20
2022-10-25T05:44:10.568Z,11.20
2022-10-25T05:49:16.013Z,11.30
2022-10-25T05:54:22.963Z,11.40
2022-10-25T05:59:28.273Z,11.50
2022-10-25T06:04:33.760Z,11.50
2022-10-25T06:09:39.070Z,11.60
2022-10-25T06:14:44.476Z,11.70
2022-10-25T06:19:51.665Z,11.70
2022-10-25T06:24:57.091Z,11.70
2022-10-25T06:30:03.844Z,11.80
2022-10-25T06:35:10.597Z,11.90
2022-10-25T06:40:16.005Z,12.00
2022-10-25T06:45:21.497Z,12.10
2022-10-25T06:50:26.806Z,12.20
2022-10-25T06:55:32.694Z,12.20
2022-10-25T07:00:40.267Z,12.30
2022-10-25T07:05:45.611Z,12.30
2022-10-25T07:10:57.447Z,12.40
2022-10-25T07:16:08.217Z,12.70
2022-10-25T07:21:17.640Z,13.20
2022-10-25T07:26:26.353Z,13.30
2022-10-25T07:31:41.339Z,13.30
2022-10-25T07:36:50.315Z,13.40
2022-10-25T07:41:58.494Z,13.40
2022-10-25T07:47:06.247Z,13.60
2022-10-25T07:52:14.166Z,13.80
2022-10-25T07:57:19.571Z,13.90
2022-10-25T08:02:26.270Z,14.10
2022-10-25T08:07:34.158Z,14.30
2022-10-25T08:12:40.054Z,14.40
2022-10-25T08:17:46.321Z,14.40
2022-10-25T08:22:51.983Z,14.40
2022-10-25T08:27:57.707Z,14.50
2022-10-25T08:33:03.246Z,14.60
2022-10-25T08:38:08.826Z,14.90
2022-10-25T08:43:37.423Z,15.10
2022-10-25T08:48:49.209Z,15.20
2022-10-25T08:54:18.768Z,15.30
2022-10-25T08:59:33.108Z,15.20
2022-10-25T09:05:02.410Z,15.30
2022-10-25T09:10:30.199Z,15.30
2022-10-25T09:16:20.295Z,15.50
2022-10-25T09:21:48.226Z,15.80
2022-10-25T09:27:14.578Z,16.10
2022-10-25T09:32:40.968Z,16.00
2022-10-25T09:37:56.027Z,15.60
2022-10-25T09:43:11.389Z,15.40
2022-10-25T09:48:25.596Z,15.10
2022-10-25T09:53:33.587Z,14.90
2022-10-25T09:58:45.452Z,14.90
2022-10-25T10:03:53.947Z,15.10
2022-10-25T10:09:06.316Z,15.20
2022-10-25T10:14:29.672Z,15.60
2022-10-25T10:19:35.410Z,16.00
2022-10-25T10:24:47.331Z,16.00
2022-10-25T10:30:06.031Z,15.80
2022-10-25T10:35:15.284Z,15.60
2022-10-25T10:40:25.336Z,15.50
2022-10-25T10:45:31.929Z,15.60
2022-10-25T10:50:38.435Z,15.70
2022-10-25T10:55:53.204Z,15.70
2022-10-25T11:01:04.241Z,15.80
2022-10-25T11:06:29.565Z,15.90
2022-10-25T11:11:38.155Z,16.00
2022-10-25T11:17:15.306Z,16.10
2022-10-25T11:22:32.261Z,16.20
2022-10-25T11:27:57.558Z,16.20
2022-10-25T11:33:25.235Z,16.10
2022-10-25T11:39:04.537Z,16.10
2022-10-25T11:44:30.763Z,16.20
2022-10-25T11:50:02.055Z,16.00
2022-10-25T11:55:31.490Z,16.00
2022-10-25T12:00:45.424Z,16.10
2022-10-25T12:06:09.257Z,16.20
2022-10-25T12:11:28.051Z,16.80
2022-10-25T12:22:28.483Z,17.30
2022-10-25T12:27:37.639Z,17.00
2022-10-25T12:32:51.622Z,17.10
2022-10-25T12:38:13.318Z,17.00
2022-10-25T12:43:35.051Z,16.90
2022-10-25T12:49:11.847Z,16.70
2022-10-25T12:54:45.842Z,16.80
2022-10-25T13:00:12.245Z,16.80
2022-10-25T13:05:53.865Z,16.70
2022-10-25T13:11:09.768Z,16.80
2022-10-25T13:16:34.441Z,16.70
2022-10-25T13:21:59.526Z,16.60
2022-10-25T13:27:16.609Z,16.40
2022-10-25T13:32:24.101Z,16.30
2022-10-25T13:37:38.009Z,16.20
2022-10-25T13:42:45.490Z,16.20
2022-10-25T13:47:53.872Z,15.90
2022-10-25T13:53:02.841Z,15.70
2022-10-25T13:58:32.176Z,15.60
2022-10-25T14:03:50.251Z,15.50
2022-10-25T14:09:00.638Z,15.50
2022-10-25T14:14:27.203Z,15.50
2022-10-25T14:19:50.630Z,15.50
2022-10-25T14:24:57.331Z,15.50
2022-10-25T14:35:24.581Z,15.50
2022-10-25T14:40:31.822Z,15.40
2022-10-25T14:45:37.108Z,15.20
2022-10-25T14:50:43.762Z,15.10
2022-10-25T14:55:58.173Z,15.00
2022-10-25T15:01:05.238Z,14.90
2022-10-25T15:06:13.220Z,14.90
2022-10-25T15:11:22.351Z,14.80
2022-10-25T15:16:31.887Z,14.60
2022-10-25T15:21:45.881Z,14.50
2022-10-25T15:27:06.660Z,14.30
2022-10-25T15:32:26.189Z,14.20
2022-10-25T15:37:37.701Z,14.00
2022-10-25T15:42:47.984Z,13.90
2022-10-25T15:48:07.091Z,13.80
2022-10-25T15:53:15.077Z,13.70
2022-10-25T15:58:20.492Z,13.60
2022-10-25T16:03:26.652Z,13.50
2022-10-25T16:08:32.101Z,13.40
2022-10-25T16:13:49.376Z,13.20
2022-10-25T16:18:56.852Z,13.10
2022-10-25T16:24:02.069Z,13.00
2022-10-25T16:29:07.375Z,13.00
2022-10-25T16:34:12.829Z,12.90
2022-10-25T16:39:21.410Z,12.80
2022-10-25T16:44:26.711Z,12.70
2022-10-25T16:49:32.940Z,12.60
2022-10-25T16:54:39.763Z,12.50
2022-10-25T16:59:45.586Z,12.40
2022-10-25T17:04:59.189Z,12.20
2022-10-25T17:10:04.680Z,12.10
2022-10-25T17:15:10.718Z,11.90
2022-10-25T17:20:18.374Z,11.80
2022-10-25T17:25:24.037Z,11.60
2022-10-25T17:30:35.681Z,11.60
2022-10-25T17:36:04.540Z,11.50
2022-10-25T17:41:13.296Z,11.40
2022-10-25T17:46:21.396Z,11.30
2022-10-25T17:51:26.961Z,11.20
2022-10-25T18:01:37.853Z,10.80
2022-10-25T18:07:01.134Z,10.70
2022-10-25T18:12:10.913Z,10.60
2022-10-25T18:17:16.549Z,10.60
2022-10-25T18:22:25.599Z,10.60
2022-10-25T18:27:33.869Z,10.50
2022-10-25T18:32:41.576Z,10.50
2022-10-25T18:37:48.808Z,10.40
2022-10-25T18:42:55.320Z,10.40
2022-10-25T18:48:03.467Z,10.30
2022-10-25T18:53:12.461Z,10.30
2022-10-25T18:58:22.002Z,10.30
2022-10-25T19:03:31.653Z,10.40
2022-10-25T19:08:39.422Z,10.50
2022-10-25T19:13:50.539Z,10.60
2022-10-25T19:18:58.976Z,10.70
2022-10-25T19:24:07.226Z,10.70
2022-10-25T19:29:24.650Z,10.60
2022-10-25T19:34:34.748Z,10.60
2022-10-25T19:39:46.416Z,10.60
2022-10-25T19:45:07.277Z,10.70
2022-10-25T19:50:33.317Z,10.80
2022-10-25T19:55:42.089Z,10.80
2022-10-25T20:01:14.168Z,10.90
2022-10-25T20:06:26.838Z,10.90
2022-10-25T20:11:34.035Z,11.00
2022-10-25T20:16:39.372Z,11.10
2022-10-25T20:21:44.667Z,11.20
2022-10-25T20:26:49.998Z,11.20
2022-10-25T20:31:55.412Z,11.20
2022-10-25T20:37:00.589Z,11.30
2022-10-25T20:42:05.820Z,11.30
2022-10-25T20:47:11.054Z,11.30
2022-10-25T20:52:17.442Z,11.30
2022-10-25T20:57:22.871Z,11.30
2022-10-25T21:02:28.230Z,11.20
2022-10-25T21:07:33.724Z,11.10
2022-10-25T21:12:38.937Z,11.00
2022-10-25T21:17:45.757Z,10.90
2022-10-25T21:22:51.286Z,10.80
2022-10-25T21:27:57.232Z,10.70
2022-10-25T21:33:04.500Z,10.60
2022-10-25T21:38:09.666Z,10.40
2022-10-25T21:43:14.859Z,10.40
2022-10-25T21:48:19.968Z,10.30
2022-10-25T21:53:25.250Z,10.20
2022-10-25T21:58:30.551Z,10.10
2022-10-25T22:03:35.861Z,10.10
2022-10-25T22:08:42.205Z,10.00
2022-10-25T22:13:48.464Z,10.00
2022-10-25T22:18:57.966Z,10.00
2022-10-25T22:24:04.731Z,10.00
2022-10-25T22:29:12.550Z,10.00
2022-10-25T22:34:18.451Z,10.10
2022-10-25T22:39:23.749Z,10.10
2022-10-25T22:44:28.955Z,10.10
2022-10-25T22:49:34.096Z,10.10
2022-10-25T22:54:39.234Z,10.10
2022-10-25T22:59:45.023Z,10.00
2022-10-25T23:04:50.300Z,10.00
2022-10-25T23:09:55.449Z,9.90
2022-10-25T23:15:01.036Z,9.90
2022-10-25T23:20:06.860Z,9.90
2022-10-25T23:25:12.182Z,9.90
2022-10-25T23:30:17.505Z,9.90
2022-10-25T23:35:22.971Z,9.90
2022-10-25T23:40:34.746Z,10.00
2022-10-25T23:45:40.089Z,10.00
2022-10-25T23:50:45.635Z,9.90
2022-10-25T23:55:51.053Z,9.90
